createdAt,value
2022-08-16T00:00:22.380Z,18.86
2022-08-16T00:02:53.566Z,18.96
2022-08-16T00:05:25.292Z,18.96
2022-08-16T00:07:59.079Z,18.92
2022-08-16T00:10:33.342Z,18.94
2022-08-16T00:13:09.596Z,18.78
2022-08-16T00:15:51.576Z,18.65
2022-08-16T00:18:29.621Z,18.62
2022-08-16T00:21:00.925Z,18.59
2022-08-16T00:23:40.005Z,18.65
2022-08-16T00:26:36.430Z,18.58
2022-08-16T00:29:02.829Z,18.68
2022-08-16T00:32:00.041Z,18.63
2022-08-16T00:34:41.232Z,18.62
2022-08-16T00:37:16.789Z,18.60
2022-08-16T00:39:57.685Z,18.42
2022-08-16T00:42:32.186Z,18.39
2022-08-16T00:45:10.884Z,18.35
2022-08-16T00:47:49.076Z,18.33
2022-08-16T00:50:21.943Z,18.23
2022-08-16T00:53:07.163Z,18.34
2022-08-16T00:55:40.109Z,18.26
2022-08-16T00:58:16.228Z,18.33
2022-08-16T01:00:54.207Z,18.27
2022-08-16T01:03:29.444Z,18.30
2022-08-16T01:06:00.406Z,18.24
2022-08-16T01:08:51.909Z,18.15
2022-08-16T01:11:22.812Z,18.24
2022-08-16T01:13:56.229Z,18.24
2022-08-16T01:16:31.044Z,18.24
2022-08-16T01:19:06.409Z,18.27
2022-08-16T01:21:49.686Z,18.18
2022-08-16T01:24:52.614Z,18.16
2022-08-16T01:27:22.480Z,18.18
2022-08-16T01:30:00.332Z,18.23
2022-08-16T01:32:34.209Z,18.22
2022-08-16T01:35:06.810Z,18.15
2022-08-16T01:37:46.017Z,18.02
2022-08-16T01:40:29.040Z,18.05
2022-08-16T01:42:59.789Z,18.05
2022-08-16T01:45:40.289Z,17.93
2022-08-16T01:48:19.729Z,17.83
2022-08-16T01:51:08.759Z,17.81
2022-08-16T01:53:41.196Z,17.65
2022-08-16T01:56:22.065Z,17.59
2022-08-16T01:58:55.105Z,17.40
2022-08-16T02:01:28.242Z,17.43
2022-08-16T02:04:10.390Z,17.43
2022-08-16T02:06:46.949Z,17.54
2022-08-16T02:09:19.454Z,17.52
2022-08-16T02:11:58.877Z,17.35
2022-08-16T02:14:32.076Z,17.24
2022-08-16T02:17:04.735Z,17.38
2022-08-16T02:19:59.113Z,17.35
2022-08-16T02:22:34.268Z,17.37
2022-08-16T02:25:10.308Z,17.28
2022-08-16T02:27:44.208Z,17.35
2022-08-16T02:30:36.539Z,17.20
2022-08-16T02:33:12.426Z,17.26
2022-08-16T02:35:53.669Z,17.19
2022-08-16T02:38:24.170Z,17.21
2022-08-16T02:40:54.862Z,17.30
2022-08-16T02:43:29.270Z,17.25
2022-08-16T02:46:07.556Z,17.25
2022-08-16T02:48:38.630Z,17.24
2022-08-16T02:51:11.724Z,17.44
2022-08-16T02:53:45.097Z,17.52
2022-08-16T02:56:16.103Z,17.52
2022-08-16T02:58:50.223Z,17.60
2022-08-16T03:01:36.766Z,17.41
2022-08-16T03:04:40.889Z,17.39
2022-08-16T03:06:59.620Z,17.42
2022-08-16T03:09:32.493Z,17.38
2022-08-16T03:12:02.837Z,17.27
2022-08-16T03:14:36.002Z,17.32
2022-08-16T03:17:08.057Z,17.37
2022-08-16T03:19:48.433Z,17.36
2022-08-16T03:22:29.501Z,17.41
2022-08-16T03:25:01.719Z,17.29
2022-08-16T03:27:33.075Z,17.33
2022-08-16T03:30:17.496Z,17.35
2022-08-16T03:32:51.504Z,17.34
2022-08-16T03:35:24.231Z,17.41
2022-08-16T03:38:04.642Z,17.37
2022-08-16T03:40:54.534Z,17.38
2022-08-16T03:43:51.308Z,17.37
2022-08-16T03:46:44.920Z,17.39
2022-08-16T03:49:12.305Z,17.30
2022-08-16T03:51:42.448Z,17.33
2022-08-16T03:54:12.976Z,17.32
2022-08-16T03:56:57.665Z,17.16
2022-08-16T03:59:29.702Z,17.12
2022-08-16T04:02:07.292Z,17.15
2022-08-16T04:04:42.535Z,17.02
2022-08-16T04:07:13.270Z,16.98
2022-08-16T04:09:44.658Z,16.91
2022-08-16T04:12:54.403Z,16.89
2022-08-16T04:15:07.797Z,16.74
2022-08-16T04:17:40.480Z,16.70
2022-08-16T04:20:31.137Z,16.70
2022-08-16T04:23:04.033Z,16.77
2022-08-16T04:25:36.411Z,16.75
2022-08-16T04:28:29.687Z,16.69
2022-08-16T04:30:57.748Z,16.73
2022-08-16T04:33:30.458Z,16.80
2022-08-16T04:36:05.185Z,16.76
2022-08-16T04:38:35.900Z,16.86
2022-08-16T04:41:05.828Z,16.99
2022-08-16T04:43:38.622Z,17.05
2022-08-16T04:46:26.534Z,17.06
2022-08-16T04:49:09.782Z,17.13
2022-08-16T04:51:41.453Z,16.98
2022-08-16T04:54:12.352Z,17.12
2022-08-16T04:56:49.022Z,17.01
2022-08-16T04:59:18.775Z,17.01
2022-08-16T05:01:57.743Z,16.80
2022-08-16T05:04:31.830Z,16.92
2022-08-16T05:07:01.621Z,16.95
2022-08-16T05:09:31.568Z,16.98
2022-08-16T05:12:07.351Z,17.14
2022-08-16T05:14:46.167Z,17.32
2022-08-16T05:17:16.619Z,17.36
2022-08-16T05:19:57.203Z,17.44
2022-08-16T05:22:30.311Z,17.47
2022-08-16T05:25:00.434Z,17.50
2022-08-16T05:27:30.340Z,17.53
2022-08-16T05:30:04.847Z,17.51
2022-08-16T05:32:50.070Z,17.63
2022-08-16T05:35:24.454Z,17.70
2022-08-16T05:37:54.362Z,17.72
2022-08-16T05:40:24.709Z,17.72
2022-08-16T05:42:56.423Z,17.60
2022-08-16T05:45:26.618Z,17.62
2022-08-16T05:47:59.965Z,17.68
2022-08-16T05:50:34.697Z,17.73
2022-08-16T05:53:05.254Z,17.71
2022-08-16T05:55:40.582Z,17.81
2022-08-16T05:58:31.816Z,17.84
2022-08-16T06:01:00.548Z,17.93
2022-08-16T06:03:34.274Z,17.99
2022-08-16T06:06:08.580Z,18.07
2022-08-16T06:08:42.370Z,18.06
2022-08-16T06:11:15.041Z,18.09
2022-08-16T06:13:47.579Z,18.20
2022-08-16T06:16:19.513Z,18.19
2022-08-16T06:18:49.366Z,18.22
2022-08-16T06:21:23.983Z,18.36
2022-08-16T06:23:54.647Z,18.47
2022-08-16T06:26:36.940Z,18.50
2022-08-16T06:29:07.966Z,18.50
2022-08-16T06:31:43.462Z,18.52
2022-08-16T06:34:31.684Z,18.69
2022-08-16T06:37:11.508Z,18.63
2022-08-16T06:39:49.844Z,18.63
2022-08-16T06:42:20.160Z,18.87
2022-08-16T06:44:50.507Z,19.06
2022-08-16T06:47:20.369Z,19.18
2022-08-16T06:49:53.954Z,19.29
2022-08-16T06:53:00.615Z,19.47
2022-08-16T06:55:20.041Z,19.61
2022-08-16T06:57:49.785Z,20.05
2022-08-16T07:00:24.653Z,20.38
2022-08-16T07:02:56.721Z,20.80
2022-08-16T07:05:27.271Z,21.18
2022-08-16T07:08:14.151Z,21.42
2022-08-16T07:10:44.221Z,21.45
2022-08-16T07:13:26.655Z,21.75
2022-08-16T07:16:06.115Z,22.50
2022-08-16T07:18:36.746Z,23.13
2022-08-16T07:21:07.894Z,23.62
2022-08-16T07:23:41.259Z,23.96
2022-08-16T07:26:25.240Z,24.06
2022-08-16T07:28:55.611Z,24.26
2022-08-16T07:31:25.751Z,24.48
2022-08-16T07:34:10.081Z,24.94
2022-08-16T07:36:40.043Z,24.93
2022-08-16T07:39:12.305Z,25.39
2022-08-16T07:41:44.510Z,25.42
2022-08-16T07:44:16.188Z,25.84
2022-08-16T07:46:46.913Z,25.99
2022-08-16T07:49:16.707Z,26.09
2022-08-16T07:51:47.999Z,26.20
2022-08-16T07:54:32.244Z,26.51
2022-08-16T07:57:08.455Z,26.63
2022-08-16T07:59:42.808Z,26.64
2022-08-16T08:02:19.613Z,26.75
2022-08-16T08:04:50.808Z,27.27
2022-08-16T08:07:20.928Z,26.27
2022-08-16T08:09:53.539Z,26.65
2022-08-16T08:12:32.607Z,26.30
2022-08-16T08:15:14.941Z,26.74
2022-08-16T08:17:55.196Z,26.99
2022-08-16T08:20:31.087Z,26.87
2022-08-16T08:23:04.082Z,26.88
2022-08-16T08:25:54.182Z,26.87
2022-08-16T08:28:25.616Z,26.66
2022-08-16T08:30:56.146Z,27.37
2022-08-16T08:33:31.652Z,27.40
2022-08-16T08:36:02.550Z,27.42
2022-08-16T08:38:45.089Z,27.40
2022-08-16T08:41:20.918Z,27.28
2022-08-16T08:43:57.246Z,27.74
2022-08-16T08:46:28.420Z,27.83
2022-08-16T08:49:05.652Z,27.71
2022-08-16T08:51:41.253Z,27.62
2022-08-16T08:54:14.359Z,27.76
2022-08-16T08:56:53.579Z,27.69
2022-08-16T08:59:23.990Z,27.83
2022-08-16T09:01:57.521Z,27.89
2022-08-16T09:04:28.250Z,27.43
2022-08-16T09:07:01.290Z,26.25
2022-08-16T09:09:33.902Z,25.78
2022-08-16T09:12:09.153Z,26.26
2022-08-16T09:14:59.473Z,26.24
2022-08-16T09:17:49.091Z,26.27
2022-08-16T09:20:19.957Z,26.31
2022-08-16T09:22:52.614Z,26.33
2022-08-16T09:25:26.328Z,25.91
2022-08-16T09:28:09.179Z,25.87
2022-08-16T09:30:44.192Z,25.76
2022-08-16T09:33:19.660Z,25.41
2022-08-16T09:35:53.634Z,25.26
2022-08-16T09:38:31.845Z,25.29
2022-08-16T09:41:04.559Z,25.18
2022-08-16T09:43:59.387Z,25.03
2022-08-16T09:46:44.945Z,24.99
2022-08-16T09:49:19.896Z,25.09
2022-08-16T09:51:55.576Z,25.06
2022-08-16T09:54:32.697Z,25.24
2022-08-16T09:57:03.057Z,25.73
2022-08-16T09:59:38.258Z,26.09
2022-08-16T10:02:26.454Z,26.55
2022-08-16T10:04:58.206Z,26.94
2022-08-16T10:07:44.811Z,27.02
2022-08-16T10:10:18.979Z,27.04
2022-08-16T10:13:14.406Z,27.37
2022-08-16T10:15:55.498Z,27.42
2022-08-16T10:18:56.373Z,27.37
2022-08-16T10:21:18.393Z,27.23
2022-08-16T10:23:49.720Z,27.32
2022-08-16T10:27:17.379Z,26.96
2022-08-16T10:29:19.908Z,26.62
2022-08-16T10:31:54.145Z,26.31
2022-08-16T10:34:31.092Z,26.49
2022-08-16T10:37:02.070Z,26.41
2022-08-16T10:39:40.537Z,26.33
2022-08-16T10:42:13.218Z,26.37
2022-08-16T10:44:53.408Z,26.22
2022-08-16T10:47:26.465Z,26.31
2022-08-16T10:49:59.603Z,26.37
2022-08-16T10:57:52.461Z,26.77
2022-08-16T11:00:22.899Z,26.73
2022-08-16T11:03:37.516Z,26.85
2022-08-16T11:06:05.970Z,26.72
2022-08-16T11:08:37.459Z,26.53
2022-08-16T11:11:18.550Z,26.78
2022-08-16T11:13:58.902Z,26.92
2022-08-16T11:19:22.926Z,26.72
2022-08-16T11:24:45.014Z,27.48
2022-08-16T11:27:20.164Z,27.03
2022-08-16T11:29:52.899Z,27.24
2022-08-16T11:32:31.220Z,27.43
2022-08-16T11:35:10.307Z,27.84
2022-08-16T11:40:38.884Z,27.80
2022-08-16T11:43:11.171Z,27.79
2022-08-16T11:45:42.424Z,27.81
2022-08-16T11:48:14.179Z,27.71
2022-08-16T11:50:47.261Z,27.37
2022-08-16T11:53:18.885Z,27.23
2022-08-16T11:55:50.738Z,27.47
2022-08-16T11:58:26.282Z,27.84
2022-08-16T12:01:00.397Z,27.94
2022-08-16T12:03:34.561Z,28.16
2022-08-16T12:06:25.565Z,28.33
2022-08-16T12:09:01.829Z,28.02
2022-08-16T12:11:33.291Z,28.22
2022-08-16T12:14:06.763Z,28.48
2022-08-16T12:16:38.537Z,28.79
2022-08-16T12:19:13.684Z,28.86
2022-08-16T12:21:59.334Z,28.93
2022-08-16T12:24:30.011Z,29.20
2022-08-16T12:27:01.793Z,29.45
2022-08-16T12:29:32.641Z,29.46
2022-08-16T12:32:35.615Z,29.29
2022-08-16T12:34:53.084Z,29.28
2022-08-16T12:37:27.534Z,29.60
2022-08-16T12:39:59.178Z,29.91
2022-08-16T12:42:35.397Z,30.04
2022-08-16T12:45:06.204Z,29.95
2022-08-16T12:47:48.438Z,29.97
2022-08-16T12:50:19.285Z,29.75
2022-08-16T12:52:53.540Z,29.73
2022-08-16T12:55:24.032Z,29.81
2022-08-16T12:58:03.440Z,29.88
2022-08-16T13:00:44.999Z,29.73
2022-08-16T13:03:16.467Z,29.90
2022-08-16T13:05:55.483Z,29.87
2022-08-16T13:08:30.712Z,29.97
2022-08-16T13:11:04.383Z,29.87
2022-08-16T13:13:35.532Z,30.03
2022-08-16T13:16:20.414Z,30.36
2022-08-16T13:18:54.694Z,30.45
2022-08-16T13:21:24.865Z,30.14
2022-08-16T13:23:59.321Z,30.19
2022-08-16T13:26:33.933Z,30.30
2022-08-16T13:29:03.656Z,30.04
2022-08-16T13:31:35.557Z,29.91
2022-08-16T13:34:09.362Z,30.03
2022-08-16T13:36:48.463Z,29.89
2022-08-16T13:39:21.349Z,29.77
2022-08-16T13:41:54.478Z,30.09
2022-08-16T13:44:30.906Z,30.07
2022-08-16T13:47:14.424Z,30.18
2022-08-16T13:49:46.580Z,30.43
2022-08-16T13:52:16.697Z,30.48
2022-08-16T13:54:49.171Z,30.34
2022-08-16T13:57:19.669Z,30.18
2022-08-16T13:59:50.342Z,29.90
2022-08-16T14:02:27.504Z,29.84
2022-08-16T14:05:03.014Z,29.94
2022-08-16T14:07:40.523Z,30.07
2022-08-16T14:10:15.665Z,29.95
2022-08-16T14:12:45.964Z,30.02
2022-08-16T14:15:19.124Z,29.95
2022-08-16T14:18:15.610Z,30.04
2022-08-16T14:20:39.891Z,30.07
2022-08-16T14:23:23.653Z,29.93
2022-08-16T14:25:57.362Z,29.61
2022-08-16T14:28:27.236Z,29.56
2022-08-16T14:30:57.215Z,29.32
2022-08-16T14:33:26.940Z,29.07
2022-08-16T14:36:02.674Z,29.30
2022-08-16T14:38:37.607Z,29.32
2022-08-16T14:41:12.035Z,29.42
2022-08-16T14:43:42.087Z,29.34
2022-08-16T14:46:11.964Z,29.34
2022-08-16T14:48:42.168Z,29.38
2022-08-16T14:51:12.163Z,29.40
2022-08-16T14:53:45.454Z,29.29
2022-08-16T14:56:38.701Z,29.22
2022-08-16T14:59:08.520Z,28.93
2022-08-16T15:01:59.274Z,28.88
2022-08-16T15:04:32.254Z,29.01
2022-08-16T15:07:12.647Z,29.04
2022-08-16T15:10:00.921Z,29.19
2022-08-16T15:12:36.324Z,29.12
2022-08-16T15:15:16.619Z,28.88
2022-08-16T15:17:56.298Z,28.84
2022-08-16T15:20:29.408Z,28.84
2022-08-16T15:23:01.578Z,28.97
2022-08-16T15:25:33.865Z,28.72
2022-08-16T15:28:24.098Z,28.96
2022-08-16T15:31:00.971Z,29.03
2022-08-16T15:33:35.063Z,29.04
2022-08-16T15:36:06.492Z,29.06
2022-08-16T15:38:57.054Z,29.07
2022-08-16T15:41:54.032Z,29.03
2022-08-16T15:44:28.275Z,28.98
2022-08-16T15:47:02.610Z,28.93
2022-08-16T15:49:34.642Z,28.88
2022-08-16T15:52:14.951Z,28.81
2022-08-16T15:54:53.613Z,28.76
2022-08-16T15:57:26.940Z,28.75
2022-08-16T16:00:15.178Z,28.66
2022-08-16T16:02:46.949Z,28.58
2022-08-16T16:05:20.092Z,28.53
2022-08-16T16:07:56.330Z,28.48
2022-08-16T16:10:30.088Z,28.37
2022-08-16T16:13:01.889Z,28.33
2022-08-16T16:15:38.247Z,28.26
2022-08-16T16:18:09.635Z,28.21
2022-08-16T16:20:43.747Z,28.12
2022-08-16T16:23:13.985Z,28.07
2022-08-16T16:25:45.597Z,28.01
2022-08-16T16:29:05.447Z,27.96
2022-08-16T16:31:15.099Z,27.93
2022-08-16T16:33:50.406Z,27.87
2022-08-16T16:36:28.183Z,27.81
2022-08-16T16:39:00.187Z,27.78
2022-08-16T16:41:32.307Z,27.74
2022-08-16T16:44:04.227Z,27.68
2022-08-16T16:46:42.444Z,27.57
2022-08-16T16:49:15.927Z,27.51
2022-08-16T16:51:49.774Z,27.47
2022-08-16T16:54:28.045Z,27.43
2022-08-16T16:56:58.699Z,27.37
2022-08-16T16:59:28.335Z,27.31
2022-08-16T17:02:41.799Z,27.32
2022-08-16T17:04:53.936Z,27.23
2022-08-16T17:07:24.565Z,27.21
2022-08-16T17:09:54.754Z,27.16
2022-08-16T17:12:47.148Z,27.16
2022-08-16T17:15:16.894Z,27.09
2022-08-16T17:17:59.107Z,27.02
2022-08-16T17:20:31.993Z,26.98
2022-08-16T17:23:01.860Z,26.92
2022-08-16T17:28:58.349Z,26.81
2022-08-16T17:31:12.297Z,26.76
2022-08-16T17:33:54.812Z,26.72
2022-08-16T17:36:35.870Z,26.69
2022-08-16T17:39:07.896Z,26.71
2022-08-16T17:39:28.675Z,26.85
2022-08-16T17:41:39.752Z,26.63
2022-08-16T17:50:55.950Z,26.42
2022-08-16T17:53:26.322Z,26.44
2022-08-16T17:55:56.838Z,26.31
2022-08-16T17:58:27.307Z,26.23
2022-08-16T18:00:59.814Z,26.14
2022-08-16T18:04:02.882Z,26.12
2022-08-16T18:06:29.425Z,26.10
2022-08-16T18:09:02.700Z,26.06
2022-08-16T18:11:35.537Z,25.92
2022-08-16T18:14:05.289Z,25.88
2022-08-16T18:16:35.481Z,25.79
2022-08-16T18:19:05.190Z,25.76
2022-08-16T18:22:01.472Z,25.69
2022-08-16T18:24:31.947Z,25.65
2022-08-16T18:27:25.263Z,25.63
2022-08-16T18:29:53.237Z,25.54
2022-08-16T18:32:24.791Z,25.48
2022-08-16T18:34:55.378Z,25.47
2022-08-16T18:37:27.879Z,25.32
2022-08-16T18:39:58.285Z,25.31
2022-08-16T18:42:28.334Z,25.30
2022-08-16T18:44:58.104Z,25.20
2022-08-16T18:47:27.872Z,25.12
2022-08-16T18:49:59.405Z,25.02
2022-08-16T18:52:31.822Z,25.02
2022-08-16T18:55:13.960Z,24.97
2022-08-16T18:57:44.954Z,24.98
2022-08-16T19:00:17.008Z,24.89
2022-08-16T19:02:58.827Z,24.88
2022-08-16T19:05:32.066Z,24.78
2022-08-16T19:08:05.416Z,24.74
2022-08-16T19:10:38.863Z,24.68
2022-08-16T19:13:10.097Z,24.68
2022-08-16T19:15:41.201Z,24.67
2022-08-16T19:18:11.679Z,24.60
2022-08-16T19:20:44.089Z,24.57
2022-08-16T19:23:18.102Z,24.54
2022-08-16T19:25:52.837Z,24.49
2022-08-16T19:28:49.620Z,24.45
2022-08-16T19:31:16.887Z,24.41
2022-08-16T19:33:53.420Z,24.35
2022-08-16T19:36:30.983Z,24.31
2022-08-16T19:39:07.065Z,24.32
2022-08-16T19:41:40.594Z,24.24
2022-08-16T19:44:11.395Z,24.21
2022-08-16T19:46:44.989Z,24.15
2022-08-16T19:49:16.265Z,24.11
2022-08-16T19:51:46.443Z,24.13
2022-08-16T19:54:18.928Z,24.13
2022-08-16T19:56:48.717Z,23.99
2022-08-16T19:59:20.643Z,23.98
2022-08-16T20:01:54.174Z,23.89
2022-08-16T20:04:25.969Z,23.82
2022-08-16T20:06:56.787Z,23.80
2022-08-16T20:09:29.386Z,23.78
2022-08-16T20:11:59.661Z,23.73
2022-08-16T20:14:30.840Z,23.69
2022-08-16T20:17:02.372Z,23.65
2022-08-16T20:19:40.024Z,23.64
2022-08-16T20:22:35.612Z,23.57
2022-08-16T20:25:12.743Z,23.49
2022-08-16T20:27:43.908Z,23.42
2022-08-16T20:30:16.948Z,23.53
2022-08-16T20:32:48.926Z,23.46
2022-08-16T20:35:22.172Z,23.50
2022-08-16T20:37:51.936Z,23.41
2022-08-16T20:40:34.419Z,23.30
2022-08-16T20:43:09.160Z,23.18
2022-08-16T20:45:40.435Z,23.12
2022-08-16T20:48:10.478Z,23.02
2022-08-16T20:50:41.180Z,22.94
2022-08-16T20:53:11.206Z,22.90
2022-08-16T20:55:44.897Z,22.87
2022-08-16T20:58:14.710Z,22.76
2022-08-16T21:00:45.586Z,22.72
2022-08-16T21:03:16.419Z,22.79
2022-08-16T21:05:46.730Z,22.76
2022-08-16T21:08:52.432Z,22.71
2022-08-16T21:11:09.810Z,22.62
2022-08-16T21:13:43.085Z,22.56
2022-08-16T21:16:14.078Z,22.46
2022-08-16T21:18:43.798Z,22.43
2022-08-16T21:21:14.554Z,22.41
2022-08-16T21:23:44.283Z,22.35
2022-08-16T21:26:16.964Z,22.25
2022-08-16T21:28:47.127Z,22.16
2022-08-16T21:31:19.145Z,22.05
2022-08-16T21:33:55.127Z,22.08
2022-08-16T21:36:35.712Z,22.08
2022-08-16T21:39:08.338Z,22.06
2022-08-16T21:41:41.012Z,21.93
2022-08-16T21:44:11.034Z,21.93
2022-08-16T21:46:40.839Z,21.90
2022-08-16T21:49:10.565Z,21.84
2022-08-16T21:51:40.390Z,21.83
2022-08-16T21:54:10.407Z,21.77
2022-08-16T21:56:42.732Z,21.77
2022-08-16T21:59:13.273Z,21.76
2022-08-16T22:01:45.605Z,21.70
2022-08-16T22:04:37.067Z,21.62
2022-08-16T22:07:06.589Z,21.60
2022-08-16T22:09:36.448Z,21.41
2022-08-16T22:12:09.759Z,21.43
2022-08-16T22:14:39.475Z,21.39
2022-08-16T22:17:09.184Z,21.38
2022-08-16T22:19:39.107Z,21.46
2022-08-16T22:22:09.232Z,21.41
2022-08-16T22:24:39.082Z,21.37
2022-08-16T22:27:11.604Z,21.38
2022-08-16T22:29:42.343Z,21.30
2022-08-16T22:32:12.330Z,21.38
2022-08-16T22:34:42.236Z,21.29
2022-08-16T22:37:11.989Z,21.30
2022-08-16T22:39:41.783Z,21.27
2022-08-16T22:42:14.402Z,21.30
2022-08-16T22:44:46.312Z,21.21
2022-08-16T22:47:16.381Z,21.14
2022-08-16T22:49:47.878Z,21.11
2022-08-16T22:52:55.739Z,21.14
2022-08-16T22:55:08.028Z,21.05
2022-08-16T22:57:40.392Z,21.01
2022-08-16T23:00:13.825Z,20.99
2022-08-16T23:03:02.997Z,20.98
2022-08-16T23:05:36.320Z,20.98
2022-08-16T23:08:07.521Z,20.91
2022-08-16T23:10:38.016Z,20.92
2022-08-16T23:13:11.076Z,20.93
2022-08-16T23:15:46.650Z,20.82
2022-08-16T23:18:26.837Z,20.79
2022-08-16T23:20:58.551Z,20.78
2022-08-16T23:23:29.256Z,20.74
2022-08-16T23:26:01.278Z,20.72
2022-08-16T23:28:34.926Z,20.69
2022-08-16T23:31:07.221Z,20.67
2022-08-16T23:33:37.267Z,20.61
2022-08-16T23:36:08.032Z,20.60
2022-08-16T23:38:39.590Z,20.59
2022-08-16T23:41:12.264Z,20.51
2022-08-16T23:43:46.360Z,20.46
2022-08-16T23:46:19.593Z,20.35
2022-08-16T23:49:56.520Z,20.37
2022-08-16T23:51:39.364Z,20.32
2022-08-16T23:54:11.659Z,20.32
2022-08-16T23:56:41.419Z,20.39
2022-08-16T23:59:13.785Z,20.29
